Time;durP1;ratioP1;P1;durP2;ratioP2;P2;SDS_P1;SDS_P2;PMS_P1;PMS_P2;Temp;Humidity;BMP_temperature;BMP_pressure;BME280_temperature;BME280_humidity;BME280_pressure;Samples;Min_cycle;Max_cycle;Signal;HPM_P1;HPM_P2
2022/06/25 00:01:52;;;;;;;7.22;1.83;;;;;;;;;;4974735;28;20051;-62
2022/06/25 00:07:03;;;;;;;9.30;1.90;;;;;;;;;;4978221;28;20046;-61
2022/06/25 00:09:29;;;;;;;5.13;1.50;;;;;;;;;;4973068;28;20062;-62
2022/06/25 00:14:39;;;;;;;5.28;2.00;;;;;;;;;;4973333;28;20377;-65
2022/06/25 00:17:05;;;;;;;6.63;1.80;;;;;;;;;;4979072;28;20054;-64
2022/06/25 00:19:31;;;;;;;8.10;2.05;;;;;;;;;;4972947;28;20074;-65
2022/06/25 00:21:57;;;;;;;8.75;2.15;;;;;;;;;;4971653;28;20569;-63
2022/06/25 00:24:23;;;;;;;8.93;2.00;;;;;;;;;;4972069;28;20304;-61
2022/06/25 00:26:49;;;;;;;7.88;1.92;;;;;;;;;;4978426;28;20137;-61
2022/06/25 00:29:15;;;;;;;9.60;1.95;;;;;;;;;;4976314;28;20054;-64
2022/06/25 00:31:41;;;;;;;11.65;2.20;;;;;;;;;;4974303;28;20058;-61
2022/06/25 00:34:08;;;;;;;4.20;1.60;;;;;;;;;;4971764;28;20057;-63
2022/06/25 00:36:34;;;;;;;5.88;1.73;;;;;;;;;;4976185;28;20047;-62
2022/06/25 00:39:00;;;;;;;7.82;1.85;;;;;;;;;;4976854;28;20054;-61
2022/06/25 00:41:25;;;;;;;7.88;1.70;;;;;;;;;;4979994;28;20120;-62
2022/06/25 00:43:51;;;;;;;8.63;2.00;;;;;;;;;;4977370;28;20050;-63
2022/06/25 00:46:17;;;;;;;5.38;1.83;;;;;;;;;;4976251;28;20065;-60
2022/06/25 00:48:43;;;;;;;10.95;1.80;;;;;;;;;;4974655;28;20448;-61
2022/06/25 00:51:14;;;;;;;10.52;1.80;;;;;;;;;;4980106;28;20058;-60
2022/06/25 00:53:43;;;;;;;8.30;1.80;;;;;;;;;;4977113;28;20046;-61
2022/06/25 00:56:10;;;;;;;7.47;2.17;;;;;;;;;;4980549;28;20081;-63
2022/06/25 00:58:39;;;;;;;5.15;1.70;;;;;;;;;;4975324;28;21064;-63
2022/06/25 01:01:08;;;;;;;6.07;2.17;;;;;;;;;;4975624;28;20065;-62
2022/06/25 01:03:37;;;;;;;12.80;2.22;;;;;;;;;;4976735;28;20073;-62
2022/06/25 01:06:04;;;;;;;8.02;1.98;;;;;;;;;;4976106;28;20042;-63
2022/06/25 01:08:34;;;;;;;9.18;1.83;;;;;;;;;;4980390;28;20509;-62
2022/06/25 01:11:01;;;;;;;6.22;1.70;;;;;;;;;;4976182;28;20153;-62
2022/06/25 01:13:28;;;;;;;8.65;2.05;;;;;;;;;;4973301;28;20182;-61
2022/06/25 01:15:54;;;;;;;4.82;1.58;;;;;;;;;;4974948;28;20055;-62
2022/06/25 01:18:19;;;;;;;4.88;1.48;;;;;;;;;;4979880;28;20076;-62
2022/06/25 01:20:46;;;;;;;5.60;1.77;;;;;;;;;;4980767;28;20059;-62
2022/06/25 01:23:12;;;;;;;6.13;1.83;;;;;;;;;;4979053;28;20070;-61
2022/06/25 01:25:39;;;;;;;4.07;1.60;;;;;;;;;;4974391;28;20702;-62
2022/06/25 01:28:07;;;;;;;7.38;1.73;;;;;;;;;;4977811;28;20048;-61
2022/06/25 01:30:34;;;;;;;8.38;1.88;;;;;;;;;;4977779;28;20415;-67
2022/06/25 01:33:00;;;;;;;7.28;1.75;;;;;;;;;;4971830;28;20049;-63
2022/06/25 01:35:26;;;;;;;7.32;1.67;;;;;;;;;;4975713;28;20056;-62
2022/06/25 01:37:51;;;;;;;5.72;1.70;;;;;;;;;;4970910;28;20054;-62
2022/06/25 01:40:17;;;;;;;7.70;1.83;;;;;;;;;;4975773;28;20050;-61
2022/06/25 01:42:58;;;;;;;7.07;2.03;;;;;;;;;;4986961;28;20105;-60
2022/06/25 01:45:28;;;;;;;6.10;1.70;;;;;;;;;;4976752;28;20530;-65
2022/06/25 01:47:54;;;;;;;5.75;1.67;;;;;;;;;;4976474;28;20104;-64
2022/06/25 01:50:20;;;;;;;8.23;1.75;;;;;;;;;;4975643;28;20054;-62
2022/06/25 01:52:46;;;;;;;5.22;1.52;;;;;;;;;;4977838;28;20078;-62
2022/06/25 01:55:13;;;;;;;4.15;1.70;;;;;;;;;;4976999;28;20046;-64
2022/06/25 01:57:39;;;;;;;8.48;1.48;;;;;;;;;;4977088;28;20047;-62
2022/06/25 02:00:08;;;;;;;8.00;1.88;;;;;;;;;;4980447;28;20042;-63
2022/06/25 02:02:35;;;;;;;5.40;1.88;;;;;;;;;;4977018;28;20058;-61
2022/06/25 02:05:01;;;;;;;5.50;2.05;;;;;;;;;;4975138;28;20106;-62
2022/06/25 02:07:27;;;;;;;7.95;2.10;;;;;;;;;;4976982;28;20046;-61
2022/06/25 02:09:53;;;;;;;7.70;2.03;;;;;;;;;;4980236;28;20146;-62
2022/06/25 02:12:19;;;;;;;6.32;1.98;;;;;;;;;;4976928;28;20059;-63
2022/06/25 02:14:47;;;;;;;6.88;2.30;;;;;;;;;;4979218;28;20050;-59
2022/06/25 02:17:13;;;;;;;9.70;1.90;;;;;;;;;;4976343;28;20054;-63
2022/06/25 02:19:39;;;;;;;7.85;2.33;;;;;;;;;;4972090;28;20093;-66
2022/06/25 02:22:05;;;;;;;5.97;2.10;;;;;;;;;;4972073;28;20050;-61
2022/06/25 02:24:31;;;;;;;6.70;2.67;;;;;;;;;;4976918;28;20057;-63
2022/06/25 02:26:58;;;;;;;4.15;1.98;;;;;;;;;;4979441;28;20046;-61
2022/06/25 02:29:24;;;;;;;10.75;2.30;;;;;;;;;;4981686;28;20046;-60
2022/06/25 02:31:50;;;;;;;6.22;2.35;;;;;;;;;;4981975;28;20056;-61
2022/06/25 02:34:16;;;;;;;9.43;2.50;;;;;;;;;;4973948;28;20050;-63
2022/06/25 02:36:42;;;;;;;9.55;2.17;;;;;;;;;;4976153;28;20054;-61
2022/06/25 02:39:08;;;;;;;8.55;2.15;;;;;;;;;;4977235;28;20105;-67
2022/06/25 02:41:33;;;;;;;6.38;2.10;;;;;;;;;;4972463;28;20163;-62
2022/06/25 02:43:59;;;;;;;8.48;1.98;;;;;;;;;;4975713;28;20093;-63
2022/06/25 02:46:26;;;;;;;5.15;2.10;;;;;;;;;;4976562;28;20050;-61
2022/06/25 02:48:52;;;;;;;9.95;2.55;;;;;;;;;;4978568;28;20058;-61
2022/06/25 02:51:18;;;;;;;8.15;2.42;;;;;;;;;;4977391;28;20051;-62
2022/06/25 02:53:44;;;;;;;6.05;2.22;;;;;;;;;;4978031;28;20064;-65
2022/06/25 02:58:54;;;;;;;8.23;2.40;;;;;;;;;;4973478;28;20062;-60
2022/06/25 03:01:24;;;;;;;10.82;2.85;;;;;;;;;;4974462;28;20436;-65
2022/06/25 03:03:50;;;;;;;15.52;2.88;;;;;;;;;;4975966;28;20065;-62
2022/06/25 03:06:16;;;;;;;8.70;3.00;;;;;;;;;;4976986;28;20059;-61
2022/06/25 03:08:42;;;;;;;8.85;3.10;;;;;;;;;;4975118;28;20487;-62
2022/06/25 03:11:08;;;;;;;9.73;3.00;;;;;;;;;;4975801;28;20449;-61
2022/06/25 03:13:36;;;;;;;6.93;2.72;;;;;;;;;;4975236;28;20058;-61
2022/06/25 03:16:05;;;;;;;7.22;2.70;;;;;;;;;;4976566;28;20054;-62
2022/06/25 03:18:31;;;;;;;9.40;2.53;;;;;;;;;;4975581;28;20133;-63
2022/06/25 03:20:57;;;;;;;10.52;3.15;;;;;;;;;;4976594;28;20495;-60
2022/06/25 03:23:23;;;;;;;10.80;3.13;;;;;;;;;;4974560;28;20065;-61
2022/06/25 03:25:49;;;;;;;18.75;2.97;;;;;;;;;;4972329;28;20062;-60
2022/06/25 03:28:16;;;;;;;8.80;2.65;;;;;;;;;;4975135;28;20057;-62
2022/06/25 03:30:42;;;;;;;6.30;2.88;;;;;;;;;;4976901;28;20050;-61
2022/06/25 03:33:08;;;;;;;7.88;2.30;;;;;;;;;;4972908;28;20515;-62
2022/06/25 03:35:34;;;;;;;11.57;2.85;;;;;;;;;;4968698;28;20053;-65
2022/06/25 03:38:00;;;;;;;10.15;2.63;;;;;;;;;;4973926;28;20149;-62
2022/06/25 03:40:26;;;;;;;10.25;2.67;;;;;;;;;;4976354;28;20062;-60
2022/06/25 03:42:52;;;;;;;8.90;3.25;;;;;;;;;;4975820;28;20051;-66
2022/06/25 03:45:18;;;;;;;11.10;3.40;;;;;;;;;;4974390;28;20054;-62
2022/06/25 03:48:01;;;;;;;9.48;2.90;;;;;;;;;;4977465;28;20042;-64
2022/06/25 03:50:28;;;;;;;11.55;3.10;;;;;;;;;;4975298;28;20051;-64
2022/06/25 03:52:53;;;;;;;5.30;2.85;;;;;;;;;;4985020;28;20117;-62
2022/06/25 03:55:19;;;;;;;9.95;3.13;;;;;;;;;;4976301;28;20469;-64
2022/06/25 03:57:45;;;;;;;10.60;3.10;;;;;;;;;;4974531;28;20100;-62
2022/06/25 04:00:12;;;;;;;8.65;2.67;;;;;;;;;;4977989;28;20046;-63
2022/06/25 04:02:38;;;;;;;8.35;2.80;;;;;;;;;;4976997;28;20480;-60
2022/06/25 04:05:04;;;;;;;11.65;2.95;;;;;;;;;;4976602;28;20346;-62
2022/06/25 04:07:30;;;;;;;10.02;3.05;;;;;;;;;;4972639;28;20109;-63
2022/06/25 04:09:56;;;;;;;9.75;2.72;;;;;;;;;;4973154;28;20086;-61
2022/06/25 04:12:22;;;;;;;15.73;3.25;;;;;;;;;;4976474;28;20073;-60
2022/06/25 04:14:48;;;;;;;7.30;2.50;;;;;;;;;;4976860;28;20063;-64
2022/06/25 04:17:13;;;;;;;10.57;2.90;;;;;;;;;;4977630;28;20495;-61
2022/06/25 04:19:42;;;;;;;6.55;2.28;;;;;;;;;;4975976;28;20060;-61
2022/06/25 04:22:11;;;;;;;7.63;2.60;;;;;;;;;;4972585;28;20524;-61
2022/06/25 04:24:39;;;;;;;7.53;2.38;;;;;;;;;;4972012;28;20498;-60
2022/06/25 04:27:05;;;;;;;7.95;2.35;;;;;;;;;;4972617;28;20054;-60
2022/06/25 04:29:31;;;;;;;9.98;2.42;;;;;;;;;;4976159;28;20058;-60
2022/06/25 04:31:57;;;;;;;9.45;2.50;;;;;;;;;;4975189;28;20058;-61
2022/06/25 04:34:24;;;;;;;9.90;3.17;;;;;;;;;;4974041;28;20115;-60
2022/06/25 04:36:50;;;;;;;11.88;2.67;;;;;;;;;;4973436;28;20605;-64
2022/06/25 04:39:16;;;;;;;12.73;2.65;;;;;;;;;;4976851;28;20517;-61
2022/06/25 04:41:43;;;;;;;12.93;2.47;;;;;;;;;;4973994;28;20063;-61
2022/06/25 04:44:09;;;;;;;6.72;2.42;;;;;;;;;;4972800;28;20038;-61
2022/06/25 04:46:34;;;;;;;7.65;2.00;;;;;;;;;;4978308;28;20058;-63
2022/06/25 04:49:00;;;;;;;8.48;2.45;;;;;;;;;;4973207;28;20054;-61
2022/06/25 04:51:27;;;;;;;9.68;2.70;;;;;;;;;;4972435;28;20326;-61
2022/06/25 04:53:56;;;;;;;10.75;2.15;;;;;;;;;;4972658;28;20813;-63
2022/06/25 04:56:26;;;;;;;4.93;1.80;;;;;;;;;;4975708;28;20054;-61
2022/06/25 04:58:53;;;;;;;5.07;1.90;;;;;;;;;;4974169;28;20579;-62
2022/06/25 05:01:20;;;;;;;6.22;2.17;;;;;;;;;;4968954;28;20913;-61
2022/06/25 05:03:46;;;;;;;6.72;2.20;;;;;;;;;;4971839;28;20565;-61
2022/06/25 05:06:13;;;;;;;5.32;2.35;;;;;;;;;;4975582;28;20433;-61
2022/06/25 05:08:39;;;;;;;11.93;2.35;;;;;;;;;;4970797;28;20051;-61
2022/06/25 05:11:05;;;;;;;6.35;2.35;;;;;;;;;;4976971;28;20054;-64
2022/06/25 05:13:30;;;;;;;9.82;2.17;;;;;;;;;;4975109;28;20049;-61
2022/06/25 05:15:56;;;;;;;9.68;2.22;;;;;;;;;;4987253;28;20664;-61
2022/06/25 05:18:22;;;;;;;7.72;2.50;;;;;;;;;;4982929;28;20068;-61
2022/06/25 05:20:48;;;;;;;9.02;2.10;;;;;;;;;;5000264;28;20042;-61
2022/06/25 05:23:14;;;;;;;6.38;2.30;;;;;;;;;;4975789;28;20413;-63
2022/06/25 05:25:41;;;;;;;7.63;2.10;;;;;;;;;;4980898;28;20057;-62
2022/06/25 05:28:07;;;;;;;6.43;2.20;;;;;;;;;;4973926;28;20101;-61
2022/06/25 05:30:34;;;;;;;5.40;1.90;;;;;;;;;;4980923;28;20117;-61
2022/06/25 05:33:00;;;;;;;5.85;2.17;;;;;;;;;;4977535;28;20058;-63
2022/06/25 05:35:26;;;;;;;7.82;2.30;;;;;;;;;;4976475;28;20322;-62
2022/06/25 05:37:52;;;;;;;4.95;2.15;;;;;;;;;;4979734;28;20061;-61
2022/06/25 05:40:18;;;;;;;13.70;2.65;;;;;;;;;;4981312;28;20055;-62
2022/06/25 05:42:44;;;;;;;5.43;2.00;;;;;;;;;;4978410;28;20046;-61
2022/06/25 05:45:10;;;;;;;5.65;2.05;;;;;;;;;;4974482;28;20054;-60
2022/06/25 05:47:37;;;;;;;7.95;2.65;;;;;;;;;;4982626;28;20046;-62
2022/06/25 05:50:04;;;;;;;4.25;2.00;;;;;;;;;;4986943;28;20444;-61
2022/06/25 05:52:29;;;;;;;6.28;1.73;;;;;;;;;;4980298;28;20074;-65
2022/06/25 05:54:55;;;;;;;7.65;1.90;;;;;;;;;;4975490;28;20097;-61
2022/06/25 05:57:21;;;;;;;5.63;2.03;;;;;;;;;;4976247;28;20051;-62
2022/06/25 05:59:47;;;;;;;7.38;2.10;;;;;;;;;;4975547;28;20057;-63
2022/06/25 06:02:13;;;;;;;8.35;2.33;;;;;;;;;;4978422;28;20480;-64
2022/06/25 06:04:39;;;;;;;6.43;2.47;;;;;;;;;;4976540;28;20042;-63
2022/06/25 06:07:05;;;;;;;7.57;2.35;;;;;;;;;;4978576;28;20121;-62
2022/06/25 06:09:32;;;;;;;7.10;1.90;;;;;;;;;;4980389;28;20091;-62
2022/06/25 06:11:59;;;;;;;6.07;2.15;;;;;;;;;;4976540;28;20457;-61
2022/06/25 06:14:25;;;;;;;7.65;2.15;;;;;;;;;;4971614;28;20096;-62
2022/06/25 06:16:51;;;;;;;6.20;2.08;;;;;;;;;;4976431;28;20117;-63
2022/06/25 06:19:17;;;;;;;5.13;2.50;;;;;;;;;;4980143;28;20054;-62
2022/06/25 06:21:43;;;;;;;8.02;2.45;;;;;;;;;;4972946;28;20049;-61
2022/06/25 06:24:09;;;;;;;7.07;2.10;;;;;;;;;;4973667;28;20407;-61
2022/06/25 06:26:35;;;;;;;4.10;1.95;;;;;;;;;;4977714;28;20042;-67
2022/06/25 06:29:01;;;;;;;10.20;2.03;;;;;;;;;;4983940;28;20130;-66
2022/06/25 06:31:27;;;;;;;7.13;1.88;;;;;;;;;;4976942;28;20480;-66
2022/06/25 06:33:53;;;;;;;8.40;1.95;;;;;;;;;;4979304;28;20054;-68
2022/06/25 06:36:19;;;;;;;5.63;1.85;;;;;;;;;;4975422;28;20089;-66
2022/06/25 06:38:45;;;;;;;3.95;1.70;;;;;;;;;;4978755;28;20500;-67
2022/06/25 06:41:13;;;;;;;6.90;2.30;;;;;;;;;;4974568;28;20049;-65
2022/06/25 06:43:39;;;;;;;9.07;2.05;;;;;;;;;;4980267;28;20054;-67
2022/06/25 06:46:05;;;;;;;8.00;2.03;;;;;;;;;;4977404;28;20108;-64
2022/06/25 06:48:31;;;;;;;9.52;1.98;;;;;;;;;;4980824;28;20082;-66
2022/06/25 06:50:57;;;;;;;8.65;2.47;;;;;;;;;;4974050;28;20050;-63
2022/06/25 06:53:23;;;;;;;7.60;2.03;;;;;;;;;;4982148;28;20046;-69
2022/06/25 06:55:50;;;;;;;6.78;1.63;;;;;;;;;;4976566;28;20117;-68
2022/06/25 06:58:17;;;;;;;5.65;1.70;;;;;;;;;;4977788;28;20137;-67
2022/06/25 07:00:43;;;;;;;4.28;1.92;;;;;;;;;;4977847;28;20061;-67
2022/06/25 07:03:09;;;;;;;7.05;1.95;;;;;;;;;;4976915;28;20042;-65
2022/06/25 07:05:35;;;;;;;7.53;2.05;;;;;;;;;;4977456;28;20042;-66
2022/06/25 07:08:01;;;;;;;5.75;1.90;;;;;;;;;;4980688;28;20081;-67
2022/06/25 07:10:27;;;;;;;3.25;1.60;;;;;;;;;;4980595;28;20082;-63
2022/06/25 07:12:53;;;;;;;5.93;2.35;;;;;;;;;;4975954;28;20613;-64
2022/06/25 07:15:19;;;;;;;9.68;1.90;;;;;;;;;;4977329;28;20408;-66
2022/06/25 07:17:45;;;;;;;5.28;1.90;;;;;;;;;;4973993;28;20058;-65
2022/06/25 07:20:11;;;;;;;7.55;1.90;;;;;;;;;;4975803;28;20052;-66
2022/06/25 07:22:37;;;;;;;8.05;2.00;;;;;;;;;;4973484;28;20046;-66
2022/06/25 07:25:04;;;;;;;8.52;2.80;;;;;;;;;;4979539;28;20061;-66
2022/06/25 07:27:29;;;;;;;12.80;2.10;;;;;;;;;;4975171;28;20459;-67
2022/06/25 07:29:56;;;;;;;14.88;2.50;;;;;;;;;;4973651;28;20163;-66
2022/06/25 07:32:21;;;;;;;4.97;1.98;;;;;;;;;;4970965;28;20058;-62
2022/06/25 07:34:47;;;;;;;11.82;2.50;;;;;;;;;;4975032;28;20064;-65
2022/06/25 07:37:13;;;;;;;7.03;1.92;;;;;;;;;;4977157;28;20153;-68
2022/06/25 07:39:39;;;;;;;5.60;1.70;;;;;;;;;;4977976;28;20046;-66
2022/06/25 07:42:05;;;;;;;6.65;2.03;;;;;;;;;;4979110;28;20372;-66
2022/06/25 07:44:31;;;;;;;4.07;1.40;;;;;;;;;;4987750;28;20034;-65
2022/06/25 07:46:57;;;;;;;7.97;1.73;;;;;;;;;;4976873;28;20054;-69
2022/06/25 07:49:22;;;;;;;7.78;1.90;;;;;;;;;;4976146;28;21394;-66
2022/06/25 07:51:59;;;;;;;5.25;1.90;;;;;;;;;;4994708;28;20591;-64
2022/06/25 07:54:28;;;;;;;5.63;2.20;;;;;;;;;;4973298;28;20101;-67
2022/06/25 07:56:54;;;;;;;5.05;1.77;;;;;;;;;;4974501;28;20496;-65
2022/06/25 07:59:21;;;;;;;9.55;2.10;;;;;;;;;;4974944;28;20132;-67
2022/06/25 08:01:47;;;;;;;8.10;1.70;;;;;;;;;;4973504;28;20051;-66
2022/06/25 08:04:13;;;;;;;6.60;1.73;;;;;;;;;;4973992;28;20137;-64
2022/06/25 08:06:41;;;;;;;8.02;2.08;;;;;;;;;;4975570;28;20040;-65
2022/06/25 08:09:10;;;;;;;6.00;1.88;;;;;;;;;;4977363;28;20673;-65
2022/06/25 08:11:37;;;;;;;5.10;1.75;;;;;;;;;;4972531;28;20039;-66
2022/06/25 08:14:04;;;;;;;10.18;2.65;;;;;;;;;;4974757;28;21088;-70
2022/06/25 08:16:30;;;;;;;7.22;1.63;;;;;;;;;;4972567;28;20055;-70
2022/06/25 08:18:56;;;;;;;9.70;1.98;;;;;;;;;;4979691;28;20441;-68
2022/06/25 08:21:22;;;;;;;11.38;1.90;;;;;;;;;;4979906;28;20061;-64
2022/06/25 08:23:48;;;;;;;7.95;2.13;;;;;;;;;;4978183;28;20129;-65
2022/06/25 08:26:15;;;;;;;6.55;2.10;;;;;;;;;;4975166;28;20096;-66
2022/06/25 08:28:42;;;;;;;6.90;1.90;;;;;;;;;;4967253;28;20472;-66
2022/06/25 08:31:08;;;;;;;8.40;2.58;;;;;;;;;;4973009;28;20043;-65
2022/06/25 08:33:34;;;;;;;11.70;2.80;;;;;;;;;;4971417;28;20059;-64
2022/06/25 08:36:00;;;;;;;8.07;2.28;;;;;;;;;;4970113;28;20057;-63
2022/06/25 08:38:26;;;;;;;10.38;2.53;;;;;;;;;;4975107;28;20050;-67
2022/06/25 08:41:00;;;;;;;7.47;2.28;;;;;;;;;;4976924;28;20108;-66
2022/06/25 08:43:26;;;;;;;7.82;2.30;;;;;;;;;;4971866;28;20086;-65
2022/06/25 08:45:54;;;;;;;6.70;2.28;;;;;;;;;;4973541;28;20065;-66
2022/06/25 08:48:35;;;;;;;8.05;2.30;;;;;;;;;;4978240;28;20062;-69
2022/06/25 08:51:04;;;;;;;11.30;2.25;;;;;;;;;;4979140;28;20086;-71
2022/06/25 08:53:34;;;;;;;8.82;1.90;;;;;;;;;;4980091;28;20496;-67
2022/06/25 08:56:03;;;;;;;6.78;2.22;;;;;;;;;;4980250;28;20077;-66
2022/06/25 08:58:29;;;;;;;9.63;2.38;;;;;;;;;;4976156;28;20062;-65
2022/06/25 09:00:55;;;;;;;11.30;2.45;;;;;;;;;;4977749;28;20064;-67
2022/06/25 09:03:22;;;;;;;7.20;2.35;;;;;;;;;;4979052;28;20620;-66
2022/06/25 09:05:47;;;;;;;5.95;1.75;;;;;;;;;;4973963;28;20058;-66
2022/06/25 09:08:15;;;;;;;7.20;2.10;;;;;;;;;;4977539;28;20128;-66
2022/06/25 09:10:44;;;;;;;7.60;2.40;;;;;;;;;;4975759;28;20050;-64
2022/06/25 09:13:11;;;;;;;9.20;2.20;;;;;;;;;;4975894;28;20038;-66
2022/06/25 09:15:44;;;;;;;7.03;2.25;;;;;;;;;;4977485;28;20050;-68
2022/06/25 09:18:13;;;;;;;11.02;2.00;;;;;;;;;;4975194;28;20042;-65
2022/06/25 09:20:55;;;;;;;8.18;1.88;;;;;;;;;;4983088;28;20124;-70
2022/06/25 09:23:21;;;;;;;7.93;1.98;;;;;;;;;;4980395;28;20054;-68
2022/06/25 09:26:09;;;;;;;7.70;2.17;;;;;;;;;;4978089;28;20050;-68
2022/06/25 09:28:39;;;;;;;8.77;2.60;;;;;;;;;;4976053;28;20053;-69
2022/06/25 09:31:06;;;;;;;9.13;2.55;;;;;;;;;;4977028;28;20059;-68
2022/06/25 09:33:34;;;;;;;9.05;1.95;;;;;;;;;;4977743;28;20299;-69
2022/06/25 09:35:59;;;;;;;14.60;3.03;;;;;;;;;;4977698;28;20047;-68
2022/06/25 09:38:26;;;;;;;8.80;2.13;;;;;;;;;;4978331;28;21569;-64
2022/06/25 09:40:56;;;;;;;8.75;2.28;;;;;;;;;;4981023;28;20061;-67
2022/06/25 09:43:24;;;;;;;4.75;1.75;;;;;;;;;;4979651;28;20035;-65
2022/06/25 09:45:53;;;;;;;7.30;2.15;;;;;;;;;;4975799;28;20745;-68
2022/06/25 09:48:21;;;;;;;6.38;2.33;;;;;;;;;;4976769;28;20146;-66
2022/06/25 09:51:15;;;;;;;10.32;2.15;;;;;;;;;;4987967;28;20038;-69
2022/06/25 09:53:51;;;;;;;8.95;2.08;;;;;;;;;;4978420;28;20304;-69
2022/06/25 09:56:32;;;;;;;6.53;1.90;;;;;;;;;;4975356;28;20042;-68
2022/06/25 09:58:59;;;;;;;8.85;2.65;;;;;;;;;;4979373;28;20047;-67
2022/06/25 10:01:28;;;;;;;9.90;2.17;;;;;;;;;;4979893;28;20103;-69
2022/06/25 10:03:55;;;;;;;9.93;2.33;;;;;;;;;;4975493;28;20078;-66
2022/06/25 10:06:23;;;;;;;7.00;2.05;;;;;;;;;;4977747;28;21011;-67
2022/06/25 10:08:54;;;;;;;9.70;2.10;;;;;;;;;;4978415;28;20081;-65
2022/06/25 10:11:27;;;;;;;8.55;2.10;;;;;;;;;;4969624;28;20180;-65
2022/06/25 10:13:54;;;;;;;7.63;2.10;;;;;;;;;;4976923;28;20062;-67
2022/06/25 10:16:24;;;;;;;8.38;2.08;;;;;;;;;;4976798;28;20059;-69
2022/06/25 10:18:51;;;;;;;6.82;1.90;;;;;;;;;;4977934;28;20046;-67
2022/06/25 10:21:19;;;;;;;9.15;2.30;;;;;;;;;;4976810;28;20055;-69
2022/06/25 10:23:48;;;;;;;8.18;2.13;;;;;;;;;;4981931;28;20416;-67
2022/06/25 10:26:14;;;;;;;7.22;1.77;;;;;;;;;;4979103;28;20058;-67
2022/06/25 10:28:41;;;;;;;4.68;1.73;;;;;;;;;;4980102;28;20188;-67
2022/06/25 10:31:11;;;;;;;8.52;2.63;;;;;;;;;;4975133;28;20050;-67
2022/06/25 10:33:57;;;;;;;9.43;2.28;;;;;;;;;;4974927;28;20046;-68
2022/06/25 10:36:46;;;;;;;5.78;2.17;;;;;;;;;;4978009;28;20532;-67
2022/06/25 10:39:27;;;;;;;8.32;1.98;;;;;;;;;;4974363;28;20082;-66
2022/06/25 10:45:14;;;;;;;10.25;2.20;;;;;;;;;;4972526;28;20087;-68
2022/06/25 10:47:47;;;;;;;7.32;1.80;;;;;;;;;;4979647;28;20524;-68
2022/06/25 10:50:22;;;;;;;5.90;1.63;;;;;;;;;;4977771;28;20426;-69
2022/06/25 10:53:03;;;;;;;11.88;2.10;;;;;;;;;;4976695;28;20042;-71
2022/06/25 10:55:40;;;;;;;7.45;2.05;;;;;;;;;;4974613;28;20053;-67
2022/06/25 10:58:14;;;;;;;5.88;1.67;;;;;;;;;;4973714;28;20038;-66
2022/06/25 11:01:03;;;;;;;6.95;2.25;;;;;;;;;;4975534;28;20049;-69
2022/06/25 11:03:32;;;;;;;7.60;1.83;;;;;;;;;;4963265;28;20446;-65
2022/06/25 11:06:22;;;;;;;6.97;1.95;;;;;;;;;;4970832;28;21258;-68
2022/06/25 11:08:49;;;;;;;7.43;1.88;;;;;;;;;;4974670;28;20053;-71
2022/06/25 11:11:32;;;;;;;7.53;2.00;;;;;;;;;;4972316;28;20060;-68
2022/06/25 11:13:59;;;;;;;7.30;2.10;;;;;;;;;;4973411;28;20138;-66
2022/06/25 11:16:25;;;;;;;5.80;2.15;;;;;;;;;;4977199;28;20077;-68
2022/06/25 11:18:53;;;;;;;9.95;1.85;;;;;;;;;;4977355;28;20411;-67
2022/06/25 11:21:28;;;;;;;8.95;2.17;;;;;;;;;;4987244;28;20054;-67
2022/06/25 11:24:12;;;;;;;19.63;5.35;;;;;;;;;;4974316;28;20065;-72
2022/06/25 11:29:27;;;;;;;6.60;2.17;;;;;;;;;;4976224;28;20054;-69
2022/06/25 11:31:55;;;;;;;7.00;1.98;;;;;;;;;;4972000;28;20058;-68
2022/06/25 11:34:23;;;;;;;5.25;1.60;;;;;;;;;;4978061;28;20065;-72
2022/06/25 11:37:05;;;;;;;5.75;1.70;;;;;;;;;;4974733;28;20136;-67
2022/06/25 11:39:32;;;;;;;4.65;1.50;;;;;;;;;;4981663;28;20046;-68
2022/06/25 11:41:58;;;;;;;4.43;1.70;;;;;;;;;;4979453;28;20046;-70
2022/06/25 11:44:24;;;;;;;7.07;2.00;;;;;;;;;;4974330;28;20061;-70
2022/06/25 11:46:53;;;;;;;7.00;1.90;;;;;;;;;;4981544;28;20540;-68
2022/06/25 11:49:22;;;;;;;6.20;1.77;;;;;;;;;;4980492;28;20082;-68
2022/06/25 11:51:52;;;;;;;7.70;1.80;;;;;;;;;;4976817;28;20140;-64
2022/06/25 11:54:24;;;;;;;8.35;1.90;;;;;;;;;;4976513;28;20058;-65
2022/06/25 11:56:54;;;;;;;5.03;2.00;;;;;;;;;;4974126;28;20353;-66
2022/06/25 11:59:25;;;;;;;3.67;1.63;;;;;;;;;;4977787;28;20058;-66
2022/06/25 12:01:51;;;;;;;5.97;1.88;;;;;;;;;;4972390;28;20050;-65
2022/06/25 12:04:18;;;;;;;8.05;1.85;;;;;;;;;;4967944;28;20051;-67
2022/06/25 12:06:46;;;;;;;4.72;1.58;;;;;;;;;;4973485;28;20042;-65
2022/06/25 12:09:55;;;;;;;5.05;1.85;;;;;;;;;;4969504;28;20085;-65
2022/06/25 12:12:23;;;;;;;4.72;1.40;;;;;;;;;;4973237;28;20054;-64
2022/06/25 12:14:49;;;;;;;7.50;1.67;;;;;;;;;;4974462;28;20045;-65
2022/06/25 12:17:16;;;;;;;4.22;1.60;;;;;;;;;;4975798;28;20528;-64
2022/06/25 12:19:48;;;;;;;9.98;1.73;;;;;;;;;;4974980;28;20046;-64
2022/06/25 12:22:29;;;;;;;4.72;1.80;;;;;;;;;;4976653;28;20510;-65
2022/06/25 12:25:02;;;;;;;6.93;1.83;;;;;;;;;;4973606;28;20054;-67
2022/06/25 12:27:29;;;;;;;4.68;1.60;;;;;;;;;;4977236;28;20059;-66
2022/06/25 12:29:56;;;;;;;5.50;1.60;;;;;;;;;;4973648;28;20058;-66
2022/06/25 12:32:37;;;;;;;7.47;1.80;;;;;;;;;;4975509;28;20054;-66
2022/06/25 12:35:03;;;;;;;4.82;1.88;;;;;;;;;;4975251;28;20531;-65
2022/06/25 12:37:32;;;;;;;8.77;1.85;;;;;;;;;;4974225;28;20135;-68
2022/06/25 12:39:59;;;;;;;7.03;1.95;;;;;;;;;;4971067;28;20046;-66
2022/06/25 12:42:33;;;;;;;5.65;1.90;;;;;;;;;;4972357;28;20153;-65
2022/06/25 12:44:59;;;;;;;10.35;1.95;;;;;;;;;;4973383;28;20730;-66
2022/06/25 12:47:38;;;;;;;7.18;1.88;;;;;;;;;;4976313;28;20468;-65
2022/06/25 12:50:06;;;;;;;5.13;2.00;;;;;;;;;;4973007;28;20041;-66
2022/06/25 12:52:37;;;;;;;6.78;1.77;;;;;;;;;;4972676;28;20062;-67
2022/06/25 12:55:04;;;;;;;6.40;1.50;;;;;;;;;;4972206;28;20061;-65
2022/06/25 12:57:32;;;;;;;5.53;1.60;;;;;;;;;;4977244;28;20533;-66
2022/06/25 13:00:00;;;;;;;6.53;1.73;;;;;;;;;;4973208;28;20194;-66
2022/06/25 13:02:27;;;;;;;10.45;2.05;;;;;;;;;;4973231;28;20046;-66
2022/06/25 13:04:53;;;;;;;7.38;1.67;;;;;;;;;;4972783;28;20058;-65
2022/06/25 13:07:19;;;;;;;4.75;1.98;;;;;;;;;;4977037;28;20049;-66
2022/06/25 13:09:47;;;;;;;6.95;1.83;;;;;;;;;;4979654;28;20517;-66
2022/06/25 13:12:14;;;;;;;4.10;1.60;;;;;;;;;;4973502;28;20130;-66
2022/06/25 13:14:41;;;;;;;8.50;2.00;;;;;;;;;;4974853;28;20062;-66
2022/06/25 13:17:08;;;;;;;3.25;1.33;;;;;;;;;;4974051;28;20128;-66
2022/06/25 13:19:35;;;;;;;7.97;1.88;;;;;;;;;;4977939;28;20046;-67
2022/06/25 13:22:03;;;;;;;6.50;2.10;;;;;;;;;;4973792;28;20137;-65
2022/06/25 13:24:29;;;;;;;6.13;1.70;;;;;;;;;;4972743;28;20129;-65
2022/06/25 13:26:55;;;;;;;4.97;1.60;;;;;;;;;;4970426;28;20101;-67
2022/06/25 13:29:22;;;;;;;6.13;1.60;;;;;;;;;;4973531;28;20137;-65
2022/06/25 13:31:48;;;;;;;6.60;1.85;;;;;;;;;;4971059;28;20069;-65
2022/06/25 13:34:15;;;;;;;6.85;1.80;;;;;;;;;;4974177;28;20128;-68
2022/06/25 13:36:40;;;;;;;7.35;1.95;;;;;;;;;;4981029;28;20050;-64
2022/06/25 13:39:07;;;;;;;7.75;2.25;;;;;;;;;;4980687;28;20030;-65
2022/06/25 13:41:35;;;;;;;5.00;2.00;;;;;;;;;;4979666;28;20062;-65
2022/06/25 13:44:03;;;;;;;8.73;2.08;;;;;;;;;;4957135;28;20073;-64
2022/06/25 13:46:29;;;;;;;4.63;1.75;;;;;;;;;;4978696;28;20362;-66
2022/06/25 13:48:55;;;;;;;5.65;1.90;;;;;;;;;;4974991;28;20532;-63
2022/06/25 13:51:22;;;;;;;8.25;2.10;;;;;;;;;;4979356;28;20860;-63
2022/06/25 13:53:49;;;;;;;6.45;2.20;;;;;;;;;;4978326;28;20080;-64
2022/06/25 13:56:15;;;;;;;6.50;1.83;;;;;;;;;;4978025;28;20057;-65
2022/06/25 13:59:07;;;;;;;9.68;1.77;;;;;;;;;;4979281;28;20122;-66
2022/06/25 14:01:34;;;;;;;6.10;1.70;;;;;;;;;;4982428;28;20059;-66
2022/06/25 14:04:01;;;;;;;11.10;1.98;;;;;;;;;;4981738;28;20775;-65
2022/06/25 14:06:27;;;;;;;4.80;1.67;;;;;;;;;;4972931;28;21217;-66
2022/06/25 14:08:54;;;;;;;5.78;1.73;;;;;;;;;;4979386;28;20088;-67
2022/06/25 14:11:20;;;;;;;6.65;2.00;;;;;;;;;;4979142;28;20047;-64
2022/06/25 14:13:47;;;;;;;5.07;1.60;;;;;;;;;;4973418;28;20050;-65
2022/06/25 14:16:14;;;;;;;4.88;1.67;;;;;;;;;;4980462;28;20105;-65
2022/06/25 14:18:40;;;;;;;9.88;2.08;;;;;;;;;;4975398;28;20129;-66
2022/06/25 14:21:06;;;;;;;5.20;1.60;;;;;;;;;;4974820;28;20136;-65
2022/06/25 14:23:33;;;;;;;6.30;1.60;;;;;;;;;;4975803;28;20057;-64
2022/06/25 14:26:00;;;;;;;5.13;1.40;;;;;;;;;;4975483;28;20060;-65
2022/06/25 14:28:26;;;;;;;4.55;1.52;;;;;;;;;;4975732;28;20370;-66
2022/06/25 14:30:52;;;;;;;5.22;1.45;;;;;;;;;;4977216;28;20061;-63
2022/06/25 14:33:18;;;;;;;7.63;2.00;;;;;;;;;;4973716;28;20054;-64
2022/06/25 14:42:20;;;;;;;6.10;1.67;;;;;;;;;;4974380;28;20046;-63
2022/06/25 14:44:00;;;;;;;6.57;1.98;;;;;;;;;;4974787;28;20401;-64
2022/06/25 14:46:26;;;;;;;8.60;2.38;;;;;;;;;;4979702;28;20056;-66
2022/06/25 14:48:51;;;;;;;7.18;2.15;;;;;;;;;;4978951;28;20086;-64
2022/06/25 14:51:18;;;;;;;7.05;2.08;;;;;;;;;;4976985;28;20050;-67
2022/06/25 14:53:44;;;;;;;10.85;2.92;;;;;;;;;;4976402;28;20054;-62
2022/06/25 14:56:10;;;;;;;4.32;2.13;;;;;;;;;;4973990;28;20525;-64
2022/06/25 14:58:36;;;;;;;5.20;2.00;;;;;;;;;;4976282;28;20050;-66
2022/06/25 15:01:01;;;;;;;8.10;2.40;;;;;;;;;;4975658;28;20116;-66
2022/06/25 15:03:27;;;;;;;4.97;1.52;;;;;;;;;;4971163;28;20051;-62
2022/06/25 15:05:54;;;;;;;7.82;2.17;;;;;;;;;;4974541;28;20137;-64